sensor_id;sensor_type;location;lat;lon;timestamp;temperature;humidity
44707;DHT22;30433;45.596;8.408;2023-07-29T00:02:09;19.90;99.90
44707;DHT22;30433;45.596;8.408;2023-07-29T00:08:12;19.50;99.90
44707;DHT22;30433;45.596;8.408;2023-07-29T00:14:15;19.70;99.90
44707;DHT22;30433;45.596;8.408;2023-07-29T00:20:17;19.40;99.90
44707;DHT22;30433;45.596;8.408;2023-07-29T00:26:19;19.50;99.90
44707;DHT22;30433;45.596;8.408;2023-07-29T00:32:23;19.70;99.90
44707;DHT22;30433;45.596;8.408;2023-07-29T00:38:26;19.70;99.90
44707;DHT22;30433;45.596;8.408;2023-07-29T00:44:28;19.60;99.90
44707;DHT22;30433;45.596;8.408;2023-07-29T00:50:33;19.60;99.90
44707;DHT22;30433;45.596;8.408;2023-07-29T00:56:36;19.50;99.90
44707;DHT22;30433;45.596;8.408;2023-07-29T01:02:38;19.50;99.90
44707;DHT22;30433;45.596;8.408;2023-07-29T01:08:48;19.60;99.90
44707;DHT22;30433;45.596;8.408;2023-07-29T01:14:58;19.50;99.90
44707;DHT22;30433;45.596;8.408;2023-07-29T01:21:04;19.30;99.90
44707;DHT22;30433;45.596;8.408;2023-07-29T01:27:10;19.10;99.90
44707;DHT22;30433;45.596;8.408;2023-07-29T01:33:18;19.10;99.90
44707;DHT22;30433;45.596;8.408;2023-07-29T01:39:21;19.10;99.90
44707;DHT22;30433;45.596;8.408;2023-07-29T01:45:25;19.40;99.90
44707;DHT22;30433;45.596;8.408;2023-07-29T01:51:27;19.70;99.90
44707;DHT22;30433;45.596;8.408;2023-07-29T01:57:29;19.60;99.90
44707;DHT22;30433;45.596;8.408;2023-07-29T02:03:33;19.60;99.90
44707;DHT22;30433;45.596;8.408;2023-07-29T02:09:35;19.50;99.90
44707;DHT22;30433;45.596;8.408;2023-07-29T02:15:37;19.10;99.90
44707;DHT22;30433;45.596;8.408;2023-07-29T02:21:41;19.40;99.90
44707;DHT22;30433;45.596;8.408;2023-07-29T02:27:43;19.00;99.90
44707;DHT22;30433;45.596;8.408;2023-07-29T02:33:45;18.90;99.90
44707;DHT22;30433;45.596;8.408;2023-07-29T02:39:48;19.10;99.90
44707;DHT22;30433;45.596;8.408;2023-07-29T02:45:50;19.10;99.90
44707;DHT22;30433;45.596;8.408;2023-07-29T02:51:53;18.90;99.90
44707;DHT22;30433;45.596;8.408;2023-07-29T02:57:56;19.50;99.90
44707;DHT22;30433;45.596;8.408;2023-07-29T03:03:58;19.50;99.90
44707;DHT22;30433;45.596;8.408;2023-07-29T03:10:00;19.20;99.90
44707;DHT22;30433;45.596;8.408;2023-07-29T03:16:08;19.10;99.90
44707;DHT22;30433;45.596;8.408;2023-07-29T03:22:10;19.10;99.90
44707;DHT22;30433;45.596;8.408;2023-07-29T03:28:12;19.00;99.90
44707;DHT22;30433;45.596;8.408;2023-07-29T03:34:16;19.10;99.90
44707;DHT22;30433;45.596;8.408;2023-07-29T03:40:18;19.30;99.90
44707;DHT22;30433;45.596;8.408;2023-07-29T03:46:20;19.40;99.90
44707;DHT22;30433;45.596;8.408;2023-07-29T03:52:24;19.20;99.90
44707;DHT22;30433;45.596;8.408;2023-07-29T03:58:26;19.40;99.90
44707;DHT22;30433;45.596;8.408;2023-07-29T04:04:28;19.30;99.90
44707;DHT22;30433;45.596;8.408;2023-07-29T04:10:31;19.30;99.90
44707;DHT22;30433;45.596;8.408;2023-07-29T04:16:35;19.30;99.90
44707;DHT22;30433;45.596;8.408;2023-07-29T04:22:37;19.10;99.90
44707;DHT22;30433;45.596;8.408;2023-07-29T04:28:42;19.00;99.90
44707;DHT22;30433;45.596;8.408;2023-07-29T04:34:44;19.10;99.90
44707;DHT22;30433;45.596;8.408;2023-07-29T04:40:48;19.00;99.90
44707;DHT22;30433;45.596;8.408;2023-07-29T04:46:52;19.30;99.90
44707;DHT22;30433;45.596;8.408;2023-07-29T04:52:54;19.70;99.90
44707;DHT22;30433;45.596;8.408;2023-07-29T04:58:56;20.30;99.90
44707;DHT22;30433;45.596;8.408;2023-07-29T05:05:00;20.90;99.90
44707;DHT22;30433;45.596;8.408;2023-07-29T05:11:02;20.80;99.90
44707;DHT22;30433;45.596;8.408;2023-07-29T05:17:05;20.60;99.90
44707;DHT22;30433;45.596;8.408;2023-07-29T05:23:09;21.30;99.90
44707;DHT22;30433;45.596;8.408;2023-07-29T05:29:11;21.00;99.90
44707;DHT22;30433;45.596;8.408;2023-07-29T05:35:13;21.40;99.90
44707;DHT22;30433;45.596;8.408;2023-07-29T05:41:17;21.40;99.90
44707;DHT22;30433;45.596;8.408;2023-07-29T05:47:19;21.10;99.90
44707;DHT22;30433;45.596;8.408;2023-07-29T05:53:21;21.10;99.90
44707;DHT22;30433;45.596;8.408;2023-07-29T05:59:24;21.00;99.90
44707;DHT22;30433;45.596;8.408;2023-07-29T06:05:29;21.00;99.90
44707;DHT22;30433;45.596;8.408;2023-07-29T06:11:31;20.80;99.90
44707;DHT22;30433;45.596;8.408;2023-07-29T06:17:35;20.80;99.90
44707;DHT22;30433;45.596;8.408;2023-07-29T06:23:37;21.00;99.90
44707;DHT22;30433;45.596;8.408;2023-07-29T06:29:39;21.30;99.90
44707;DHT22;30433;45.596;8.408;2023-07-29T06:35:43;21.20;99.90
44707;DHT22;30433;45.596;8.408;2023-07-29T06:41:45;21.40;99.90
44707;DHT22;30433;45.596;8.408;2023-07-29T06:47:47;21.40;99.90
44707;DHT22;30433;45.596;8.408;2023-07-29T06:53:51;21.70;99.90
44707;DHT22;30433;45.596;8.408;2023-07-29T06:59:53;21.80;99.90
44707;DHT22;30433;45.596;8.408;2023-07-29T07:05:55;21.90;99.90
44707;DHT22;30433;45.596;8.408;2023-07-29T07:11:58;22.00;99.90
44707;DHT22;30433;45.596;8.408;2023-07-29T07:18:01;22.10;99.90
44707;DHT22;30433;45.596;8.408;2023-07-29T07:24:03;22.40;99.90
44707;DHT22;30433;45.596;8.408;2023-07-29T07:30:07;22.50;99.90
44707;DHT22;30433;45.596;8.408;2023-07-29T07:36:10;22.70;99.90
44707;DHT22;30433;45.596;8.408;2023-07-29T07:42:12;23.70;99.90
44707;DHT22;30433;45.596;8.408;2023-07-29T07:48:15;23.10;99.90
44707;DHT22;30433;45.596;8.408;2023-07-29T07:54:18;23.70;99.90
44707;DHT22;30433;45.596;8.408;2023-07-29T08:00:20;23.80;99.90
44707;DHT22;30433;45.596;8.408;2023-07-29T08:06:23;23.90;99.90
44707;DHT22;30433;45.596;8.408;2023-07-29T08:12:26;23.70;99.90
44707;DHT22;30433;45.596;8.408;2023-07-29T08:18:27;24.40;99.90
44707;DHT22;30433;45.596;8.408;2023-07-29T08:24:31;24.50;99.90
44707;DHT22;30433;45.596;8.408;2023-07-29T08:30:34;25.00;99.90
44707;DHT22;30433;45.596;8.408;2023-07-29T08:43:29;25.20;99.90
44707;DHT22;30433;45.596;8.408;2023-07-29T08:49:32;25.30;99.90
44707;DHT22;30433;45.596;8.408;2023-07-29T08:55:34;25.50;99.90
44707;DHT22;30433;45.596;8.408;2023-07-29T09:01:38;25.20;99.90
44707;DHT22;30433;45.596;8.408;2023-07-29T09:07:41;25.80;99.90
44707;DHT22;30433;45.596;8.408;2023-07-29T09:13:44;25.90;99.90
44707;DHT22;30433;45.596;8.408;2023-07-29T09:19:49;26.20;99.90
44707;DHT22;30433;45.596;8.408;2023-07-29T09:26:00;26.10;99.90
44707;DHT22;30433;45.596;8.408;2023-07-29T09:32:18;26.10;99.90
44707;DHT22;30433;45.596;8.408;2023-07-29T09:38:27;26.60;99.90
44707;DHT22;30433;45.596;8.408;2023-07-29T09:44:36;27.20;99.90
44707;DHT22;30433;45.596;8.408;2023-07-29T09:50:38;27.30;99.90
44707;DHT22;30433;45.596;8.408;2023-07-29T09:56:42;27.00;99.90
44707;DHT22;30433;45.596;8.408;2023-07-29T10:02:45;27.10;99.90
44707;DHT22;30433;45.596;8.408;2023-07-29T10:08:48;27.70;99.90
44707;DHT22;30433;45.596;8.408;2023-07-29T10:14:52;27.70;99.90
44707;DHT22;30433;45.596;8.408;2023-07-29T10:20:57;27.60;99.90
44707;DHT22;30433;45.596;8.408;2023-07-29T10:27:00;27.90;99.90
44707;DHT22;30433;45.596;8.408;2023-07-29T10:33:05;27.70;99.90
44707;DHT22;30433;45.596;8.408;2023-07-29T10:39:08;28.00;99.90
44707;DHT22;30433;45.596;8.408;2023-07-29T10:45:19;28.10;99.90
44707;DHT22;30433;45.596;8.408;2023-07-29T10:51:30;27.20;99.90
44707;DHT22;30433;45.596;8.408;2023-07-29T10:57:35;26.60;99.90
44707;DHT22;30433;45.596;8.408;2023-07-29T11:03:37;26.30;99.90
44707;DHT22;30433;45.596;8.408;2023-07-29T11:09:42;25.90;99.90
44707;DHT22;30433;45.596;8.408;2023-07-29T11:15:46;26.20;99.90
44707;DHT22;30433;45.596;8.408;2023-07-29T11:21:49;26.40;99.90
44707;DHT22;30433;45.596;8.408;2023-07-29T11:27:54;26.90;99.90
44707;DHT22;30433;45.596;8.408;2023-07-29T11:33:56;26.30;99.90
44707;DHT22;30433;45.596;8.408;2023-07-29T11:39:58;26.20;99.90
44707;DHT22;30433;45.596;8.408;2023-07-29T11:46:02;26.60;99.90
44707;DHT22;30433;45.596;8.408;2023-07-29T11:52:06;26.20;99.90
44707;DHT22;30433;45.596;8.408;2023-07-29T11:58:10;26.30;99.90
44707;DHT22;30433;45.596;8.408;2023-07-29T12:04:14;26.40;99.90
44707;DHT22;30433;45.596;8.408;2023-07-29T12:10:16;26.30;99.90
44707;DHT22;30433;45.596;8.408;2023-07-29T12:16:19;26.40;99.90
44707;DHT22;30433;45.596;8.408;2023-07-29T12:22:24;26.50;99.90
44707;DHT22;30433;45.596;8.408;2023-07-29T12:28:26;26.40;99.90
44707;DHT22;30433;45.596;8.408;2023-07-29T12:34:30;26.70;99.90
44707;DHT22;30433;45.596;8.408;2023-07-29T12:40:38;27.00;99.90
44707;DHT22;30433;45.596;8.408;2023-07-29T12:46:42;27.20;99.90
44707;DHT22;30433;45.596;8.408;2023-07-29T12:52:45;27.40;99.90
44707;DHT22;30433;45.596;8.408;2023-07-29T12:58:48;27.30;99.90
44707;DHT22;30433;45.596;8.408;2023-07-29T13:04:50;27.50;99.90
44707;DHT22;30433;45.596;8.408;2023-07-29T13:10:53;27.40;99.90
44707;DHT22;30433;45.596;8.408;2023-07-29T13:16:56;27.20;99.90
44707;DHT22;30433;45.596;8.408;2023-07-29T13:22:58;27.20;99.90
44707;DHT22;30433;45.596;8.408;2023-07-29T13:29:00;26.90;99.90
44707;DHT22;30433;45.596;8.408;2023-07-29T13:35:07;27.30;99.90
44707;DHT22;30433;45.596;8.408;2023-07-29T13:41:09;27.40;99.90
44707;DHT22;30433;45.596;8.408;2023-07-29T13:47:11;27.30;99.90
44707;DHT22;30433;45.596;8.408;2023-07-29T13:53:15;27.20;99.90
44707;DHT22;30433;45.596;8.408;2023-07-29T13:59:17;27.40;99.90
44707;DHT22;30433;45.596;8.408;2023-07-29T14:05:19;27.20;99.90
44707;DHT22;30433;45.596;8.408;2023-07-29T14:11:22;27.20;99.90
44707;DHT22;30433;45.596;8.408;2023-07-29T14:17:25;27.20;99.70
44707;DHT22;30433;45.596;8.408;2023-07-29T14:23:27;27.20;99.60
44707;DHT22;30433;45.596;8.408;2023-07-29T14:29:31;27.60;99.90
44707;DHT22;30433;45.596;8.408;2023-07-29T14:35:33;27.40;99.90
44707;DHT22;30433;45.596;8.408;2023-07-29T14:41:35;27.20;99.90
44707;DHT22;30433;45.596;8.408;2023-07-29T14:47:39;27.20;99.90
44707;DHT22;30433;45.596;8.408;2023-07-29T14:53:41;27.00;99.90
44707;DHT22;30433;45.596;8.408;2023-07-29T14:59:43;26.90;99.90
44707;DHT22;30433;45.596;8.408;2023-07-29T15:05:47;26.90;99.90
44707;DHT22;30433;45.596;8.408;2023-07-29T15:11:49;27.00;99.90
44707;DHT22;30433;45.596;8.408;2023-07-29T15:17:51;27.10;99.90
44707;DHT22;30433;45.596;8.408;2023-07-29T15:23:55;26.90;99.90
44707;DHT22;30433;45.596;8.408;2023-07-29T15:29:57;26.90;99.90
44707;DHT22;30433;45.596;8.408;2023-07-29T15:35:59;26.90;99.90
44707;DHT22;30433;45.596;8.408;2023-07-29T15:42:03;27.20;99.90
44707;DHT22;30433;45.596;8.408;2023-07-29T15:48:05;27.10;99.90
44707;DHT22;30433;45.596;8.408;2023-07-29T15:54:08;27.20;99.90
44707;DHT22;30433;45.596;8.408;2023-07-29T16:00:13;27.10;99.90
44707;DHT22;30433;45.596;8.408;2023-07-29T16:06:15;26.90;99.90
44707;DHT22;30433;45.596;8.408;2023-07-29T16:12:17;27.20;99.90
44707;DHT22;30433;45.596;8.408;2023-07-29T16:18:21;27.30;99.90
44707;DHT22;30433;45.596;8.408;2023-07-29T16:24:23;27.20;99.90
44707;DHT22;30433;45.596;8.408;2023-07-29T16:30:25;27.10;99.10
44707;DHT22;30433;45.596;8.408;2023-07-29T16:36:29;27.30;99.60
44707;DHT22;30433;45.596;8.408;2023-07-29T16:42:31;27.20;99.40
44707;DHT22;30433;45.596;8.408;2023-07-29T16:48:33;27.10;99.90
44707;DHT22;30433;45.596;8.408;2023-07-29T16:54:37;27.10;99.90
44707;DHT22;30433;45.596;8.408;2023-07-29T17:00:39;27.10;99.70
44707;DHT22;30433;45.596;8.408;2023-07-29T17:06:41;26.70;99.90
44707;DHT22;30433;45.596;8.408;2023-07-29T17:12:45;26.50;99.90
44707;DHT22;30433;45.596;8.408;2023-07-29T17:18:47;26.50;99.90
44707;DHT22;30433;45.596;8.408;2023-07-29T17:24:49;26.40;99.90
44707;DHT22;30433;45.596;8.408;2023-07-29T17:30:52;26.30;99.90
44707;DHT22;30433;45.596;8.408;2023-07-29T17:36:55;26.40;99.90
44707;DHT22;30433;45.596;8.408;2023-07-29T17:42:57;26.40;99.90
44707;DHT22;30433;45.596;8.408;2023-07-29T17:49:00;26.40;99.90
44707;DHT22;30433;45.596;8.408;2023-07-29T17:55:03;26.30;99.90
44707;DHT22;30433;45.596;8.408;2023-07-29T18:01:05;26.20;99.90
44707;DHT22;30433;45.596;8.408;2023-07-29T18:07:09;26.00;99.90
44707;DHT22;30433;45.596;8.408;2023-07-29T18:13:11;25.90;99.90
44707;DHT22;30433;45.596;8.408;2023-07-29T18:19:13;25.80;99.90
44707;DHT22;30433;45.596;8.408;2023-07-29T18:25:17;25.60;99.90
44707;DHT22;30433;45.596;8.408;2023-07-29T18:31:19;25.60;99.90
44707;DHT22;30433;45.596;8.408;2023-07-29T18:37:22;25.60;99.90
44707;DHT22;30433;45.596;8.408;2023-07-29T18:43:25;25.50;99.90
44707;DHT22;30433;45.596;8.408;2023-07-29T18:49:28;25.30;99.90
44707;DHT22;30433;45.596;8.408;2023-07-29T18:55:30;25.30;99.90
44707;DHT22;30433;45.596;8.408;2023-07-29T19:01:35;25.20;99.90
44707;DHT22;30433;45.596;8.408;2023-07-29T19:07:38;25.20;99.90
44707;DHT22;30433;45.596;8.408;2023-07-29T19:13:40;25.00;99.90
44707;DHT22;30433;45.596;8.408;2023-07-29T19:19:43;24.90;99.90
44707;DHT22;30433;45.596;8.408;2023-07-29T19:25:46;24.90;99.90
44707;DHT22;30433;45.596;8.408;2023-07-29T19:31:48;24.90;99.90
44707;DHT22;30433;45.596;8.408;2023-07-29T19:37:52;24.90;99.90
44707;DHT22;30433;45.596;8.408;2023-07-29T19:43:54;24.80;99.90
44707;DHT22;30433;45.596;8.408;2023-07-29T19:49:56;24.70;99.90
44707;DHT22;30433;45.596;8.408;2023-07-29T19:56:00;24.60;99.90
44707;DHT22;30433;45.596;8.408;2023-07-29T20:02:03;24.60;99.90
44707;DHT22;30433;45.596;8.408;2023-07-29T20:08:06;24.60;99.90
44707;DHT22;30433;45.596;8.408;2023-07-29T20:14:10;24.40;99.90
44707;DHT22;30433;45.596;8.408;2023-07-29T20:20:12;24.20;99.90
44707;DHT22;30433;45.596;8.408;2023-07-29T20:26:14;23.30;99.90
44707;DHT22;30433;45.596;8.408;2023-07-29T20:32:18;22.80;99.90
44707;DHT22;30433;45.596;8.408;2023-07-29T20:38:20;22.70;99.90
44707;DHT22;30433;45.596;8.408;2023-07-29T20:44:22;22.70;99.90
44707;DHT22;30433;45.596;8.408;2023-07-29T20:50:25;22.20;99.90
44707;DHT22;30433;45.596;8.408;2023-07-29T20:56:28;22.10;99.90
44707;DHT22;30433;45.596;8.408;2023-07-29T21:02:29;22.50;99.90
44707;DHT22;30433;45.596;8.408;2023-07-29T21:08:33;22.20;99.90
44707;DHT22;30433;45.596;8.408;2023-07-29T21:14:35;22.40;99.90
44707;DHT22;30433;45.596;8.408;2023-07-29T21:20:38;21.60;99.90
44707;DHT22;30433;45.596;8.408;2023-07-29T21:26:42;21.30;99.90
44707;DHT22;30433;45.596;8.408;2023-07-29T21:32:44;21.20;99.90
44707;DHT22;30433;45.596;8.408;2023-07-29T21:38:46;21.60;99.90
44707;DHT22;30433;45.596;8.408;2023-07-29T21:44:49;21.40;99.90
44707;DHT22;30433;45.596;8.408;2023-07-29T21:50:53;20.90;99.90
44707;DHT22;30433;45.596;8.408;2023-07-29T21:56:56;20.50;99.90
44707;DHT22;30433;45.596;8.408;2023-07-29T22:02:59;20.10;99.90
44707;DHT22;30433;45.596;8.408;2023-07-29T22:09:01;20.70;99.90
44707;DHT22;30433;45.596;8.408;2023-07-29T22:15:05;20.50;99.90
44707;DHT22;30433;45.596;8.408;2023-07-29T22:21:09;20.00;99.90
44707;DHT22;30433;45.596;8.408;2023-07-29T22:27:11;19.90;99.90
44707;DHT22;30433;45.596;8.408;2023-07-29T22:33:13;19.70;99.90
44707;DHT22;30433;45.596;8.408;2023-07-29T22:39:17;19.20;99.90
44707;DHT22;30433;45.596;8.408;2023-07-29T22:45:19;18.50;99.90
44707;DHT22;30433;45.596;8.408;2023-07-29T22:51:21;19.20;99.90
44707;DHT22;30433;45.596;8.408;2023-07-29T22:57:24;19.40;99.90
44707;DHT22;30433;45.596;8.408;2023-07-29T23:03:26;18.60;99.90
44707;DHT22;30433;45.596;8.408;2023-07-29T23:09:28;19.40;99.90
44707;DHT22;30433;45.596;8.408;2023-07-29T23:15:34;19.20;99.90
44707;DHT22;30433;45.596;8.408;2023-07-29T23:21:36;19.40;99.90
44707;DHT22;30433;45.596;8.408;2023-07-29T23:27:39;19.40;99.90
44707;DHT22;30433;45.596;8.408;2023-07-29T23:33:42;19.40;99.90
44707;DHT22;30433;45.596;8.408;2023-07-29T23:39:44;19.50;99.90
44707;DHT22;30433;45.596;8.408;2023-07-29T23:45:46;19.80;99.90
44707;DHT22;30433;45.596;8.408;2023-07-29T23:51:50;19.90;99.90
44707;DHT22;30433;45.596;8.408;2023-07-29T23:57:52;20.10;99.90
